TAR708 DAOO-DTTA
Flight info
| Callsign | TAR708 |
|---|---|
| Flight time | N/A |
| Altitude | 37000 |
| Route | SID51 CHE UA31 BNA UA411 MORJA UM978 KEMIR |
| Aircraft | A320/M-SDE3FGHIRWY/LB1 |
Departure
| Time | N/A |
|---|---|
| Airport | Oran Es-Sénia (Ahmed Ben Bella) International Airport (DAOO) |
Arrival
| Time | 2026-05-08 00:28 |
|---|---|
| Airport | Tunis Carthage International Airport (DTTA) |
| Time | Latitude | Longitude | Altitude | Speed | Heading |
|---|---|---|---|---|---|
| 2026-05-07 23:23 | 35.75373 | 0.53817 | 22617 ft | 455 kts | 54° |
| 2026-05-07 23:23 | 35.77092 | 0.57107 | 23096 ft | 458 kts | 55° |
| 2026-05-07 23:23 | 35.78816 | 0.60415 | 23546 ft | 461 kts | 55° |
| 2026-05-07 23:24 | 35.80556 | 0.63749 | 23917 ft | 464 kts | 55° |
| 2026-05-07 23:24 | 35.82309 | 0.67106 | 24296 ft | 466 kts | 55° |
| 2026-05-07 23:24 | 35.84067 | 0.70476 | 24673 ft | 468 kts | 54° |
| 2026-05-07 23:24 | 35.85837 | 0.73864 | 25044 ft | 471 kts | 54° |
| 2026-05-07 23:25 | 35.87613 | 0.77258 | 25393 ft | 473 kts | 54° |
| 2026-05-07 23:25 | 35.89401 | 0.80682 | 25758 ft | 475 kts | 54° |
| 2026-05-07 23:25 | 35.91184 | 0.84107 | 26108 ft | 476 kts | 54° |
| 2026-05-07 23:25 | 35.92981 | 0.87565 | 26459 ft | 479 kts | 54° |
| 2026-05-07 23:26 | 35.94780 | 0.91030 | 26796 ft | 481 kts | 54° |
| 2026-05-07 23:26 | 35.96587 | 0.94513 | 27125 ft | 483 kts | 54° |
| 2026-05-07 23:26 | 35.98405 | 0.98017 | 27454 ft | 485 kts | 54° |
| 2026-05-07 23:26 | 36.00228 | 1.01535 | 27783 ft | 487 kts | 54° |
| 2026-05-07 23:27 | 36.03872 | 1.08585 | 28415 ft | 492 kts | 54° |
| 2026-05-07 23:27 | 36.05714 | 1.12157 | 28736 ft | 494 kts | 54° |
| 2026-05-07 23:27 | 36.07562 | 1.15747 | 29009 ft | 496 kts | 54° |
| 2026-05-07 23:28 | 36.09414 | 1.19345 | 29317 ft | 497 kts | 54° |
| 2026-05-07 23:28 | 36.11273 | 1.22959 | 29601 ft | 499 kts | 54° |
| 2026-05-07 23:28 | 36.13143 | 1.26598 | 29876 ft | 501 kts | 54° |
| 2026-05-07 23:28 | 36.15016 | 1.30239 | 30122 ft | 503 kts | 54° |
| 2026-05-07 23:29 | 36.16897 | 1.33899 | 30347 ft | 504 kts | 54° |
| 2026-05-07 23:29 | 36.18776 | 1.37564 | 30568 ft | 505 kts | 54° |
| 2026-05-07 23:29 | 36.20664 | 1.41254 | 30779 ft | 507 kts | 54° |
| 2026-05-07 23:29 | 36.22549 | 1.44943 | 31014 ft | 507 kts | 54° |
| 2026-05-07 23:30 | 36.24432 | 1.48635 | 31335 ft | 506 kts | 53° |
| 2026-05-07 23:30 | 36.26311 | 1.52318 | 31590 ft | 506 kts | 53° |
| 2026-05-07 23:30 | 36.28189 | 1.56002 | 31875 ft | 505 kts | 53° |
| 2026-05-07 23:30 | 36.30060 | 1.59680 | 32162 ft | 504 kts | 53° |
| 2026-05-07 23:31 | 36.31927 | 1.63355 | 32457 ft | 503 kts | 53° |
| 2026-05-07 23:31 | 36.33792 | 1.67024 | 32748 ft | 502 kts | 53° |
| 2026-05-07 23:31 | 36.35025 | 1.69454 | 32928 ft | 502 kts | 53° |
| 2026-05-07 23:31 | 36.37512 | 1.74362 | 33316 ft | 501 kts | 53° |
| 2026-05-07 23:32 | 36.39368 | 1.78027 | 33615 ft | 500 kts | 53° |
| 2026-05-07 23:32 | 36.40588 | 1.80443 | 33806 ft | 499 kts | 53° |
| 2026-05-07 23:32 | 36.42433 | 1.84098 | 34089 ft | 498 kts | 53° |
| 2026-05-07 23:32 | 36.44868 | 1.88926 | 34395 ft | 498 kts | 53° |
| 2026-05-07 23:33 | 36.46705 | 1.92570 | 34640 ft | 497 kts | 53° |
| 2026-05-07 23:33 | 36.48537 | 1.96208 | 34895 ft | 497 kts | 53° |
| 2026-05-07 23:33 | 36.49777 | 1.98673 | 35041 ft | 497 kts | 53° |
| 2026-05-07 23:33 | 36.52206 | 2.03496 | 35301 ft | 497 kts | 52° |
| 2026-05-07 23:34 | 36.53421 | 2.05912 | 35432 ft | 497 kts | 53° |
| 2026-05-07 23:34 | 36.55249 | 2.09555 | 35616 ft | 497 kts | 53° |
| 2026-05-07 23:34 | 36.57103 | 2.13254 | 35808 ft | 497 kts | 53° |
| 2026-05-07 23:34 | 36.58740 | 2.16988 | 35989 ft | 502 kts | 62° |
| 2026-05-07 23:35 | 36.59972 | 2.21130 | 36169 ft | 506 kts | 72° |
| 2026-05-07 23:35 | 36.60692 | 2.25374 | 36335 ft | 509 kts | 81° |
| 2026-05-07 23:35 | 36.61089 | 2.29741 | 36498 ft | 509 kts | 82° |
| 2026-05-07 23:35 | 36.61482 | 2.34123 | 36676 ft | 509 kts | 82° |
| 2026-05-07 23:36 | 36.61878 | 2.38497 | 36849 ft | 508 kts | 82° |
| 2026-05-07 23:36 | 36.62277 | 2.42866 | 36980 ft | 508 kts | 82° |
| 2026-05-07 23:36 | 36.63068 | 2.51592 | 36997 ft | 507 kts | 82° |
| 2026-05-07 23:37 | 36.63843 | 2.60330 | 36997 ft | 507 kts | 82° |
| 2026-05-07 23:37 | 36.64612 | 2.69068 | 37005 ft | 507 kts | 82° |
| 2026-05-07 23:38 | 36.65376 | 2.77786 | 37001 ft | 507 kts | 82° |
| 2026-05-07 23:38 | 36.66131 | 2.86517 | 36995 ft | 507 kts | 82° |
| 2026-05-07 23:39 | 36.66881 | 2.95251 | 36999 ft | 507 kts | 82° |
| 2026-05-07 23:39 | 36.67625 | 3.03919 | 37002 ft | 507 kts | 82° |
| 2026-05-07 23:40 | 36.68361 | 3.12668 | 37002 ft | 507 kts | 83° |
| 2026-05-07 23:40 | 36.68929 | 3.21423 | 37000 ft | 508 kts | 91° |
| 2026-05-07 23:41 | 36.68191 | 3.30162 | 36999 ft | 507 kts | 98° |
| 2026-05-07 23:41 | 36.67260 | 3.38890 | 37007 ft | 508 kts | 98° |
| 2026-05-07 23:42 | 36.66352 | 3.47613 | 37010 ft | 508 kts | 98° |
| 2026-05-07 23:42 | 36.65435 | 3.56288 | 36997 ft | 508 kts | 97° |
| 2026-05-07 23:43 | 36.65411 | 3.65071 | 37002 ft | 507 kts | 85° |
| 2026-05-07 23:43 | 36.65855 | 3.73846 | 37002 ft | 507 kts | 85° |
| 2026-05-07 23:44 | 36.66281 | 3.82631 | 37002 ft | 507 kts | 86° |
| 2026-05-07 23:44 | 36.66686 | 3.91411 | 37007 ft | 507 kts | 86° |
| 2026-05-07 23:45 | 36.67086 | 4.00183 | 37005 ft | 507 kts | 86° |
| 2026-05-07 23:45 | 36.67486 | 4.08960 | 37007 ft | 507 kts | 86° |
| 2026-05-07 23:46 | 36.67884 | 4.17685 | 37024 ft | 508 kts | 86° |
| 2026-05-07 23:46 | 36.68272 | 4.26458 | 37005 ft | 508 kts | 86° |
| 2026-05-07 23:47 | 36.68654 | 4.35259 | 36997 ft | 508 kts | 86° |
| 2026-05-07 23:47 | 36.69028 | 4.44066 | 36998 ft | 509 kts | 86° |
| 2026-05-07 23:48 | 36.69394 | 4.52880 | 36998 ft | 509 kts | 86° |
| 2026-05-07 23:48 | 36.69754 | 4.61689 | 36998 ft | 509 kts | 86° |
| 2026-05-07 23:49 | 36.70109 | 4.70518 | 36979 ft | 510 kts | 86° |
| 2026-05-07 23:49 | 36.70460 | 4.79315 | 36972 ft | 511 kts | 86° |
| 2026-05-07 23:50 | 36.70806 | 4.88165 | 36969 ft | 512 kts | 87° |
| 2026-05-07 23:50 | 36.71144 | 4.97017 | 36948 ft | 512 kts | 87° |
| 2026-05-07 23:51 | 36.71476 | 5.05877 | 36964 ft | 512 kts | 87° |
| 2026-05-07 23:51 | 36.72061 | 5.14712 | 36974 ft | 511 kts | 82° |
| 2026-05-07 23:52 | 36.73079 | 5.23491 | 36978 ft | 511 kts | 80° |
| 2026-05-07 23:52 | 36.74149 | 5.32250 | 36985 ft | 511 kts | 81° |
| 2026-05-07 23:53 | 36.75092 | 5.41025 | 36981 ft | 511 kts | 82° |
| 2026-05-07 23:53 | 36.75961 | 5.49827 | 36990 ft | 511 kts | 82° |
| 2026-05-07 23:54 | 36.76835 | 5.58632 | 36991 ft | 511 kts | 82° |
| 2026-05-07 23:54 | 36.77730 | 5.67429 | 36985 ft | 511 kts | 82° |
| 2026-05-07 23:55 | 36.78628 | 5.76229 | 36975 ft | 511 kts | 82° |
| 2026-05-07 23:55 | 36.79511 | 5.85033 | 36970 ft | 512 kts | 82° |
| 2026-05-07 23:56 | 36.79931 | 5.93901 | 36969 ft | 512 kts | 88° |
| 2026-05-07 23:56 | 36.80151 | 6.02727 | 36976 ft | 512 kts | 89° |
| 2026-05-07 23:57 | 36.80364 | 6.11609 | 36963 ft | 512 kts | 89° |
| 2026-05-07 23:57 | 36.80570 | 6.20488 | 36975 ft | 512 kts | 89° |
| 2026-05-07 23:58 | 36.80771 | 6.29361 | 36978 ft | 512 kts | 89° |
| 2026-05-07 23:58 | 36.80976 | 6.38237 | 36982 ft | 512 kts | 89° |
| 2026-05-07 23:59 | 36.81168 | 6.47117 | 36980 ft | 512 kts | 90° |
| 2026-05-07 23:59 | 36.81350 | 6.55998 | 37011 ft | 512 kts | 89° |
| 2026-05-08 00:00 | 36.81527 | 6.64895 | 36995 ft | 513 kts | 89° |
| 2026-05-08 00:00 | 36.81698 | 6.73787 | 36977 ft | 513 kts | 89° |
| 2026-05-08 00:01 | 36.81863 | 6.82695 | 36973 ft | 513 kts | 89° |
| 2026-05-08 00:01 | 36.82022 | 6.91605 | 36961 ft | 514 kts | 90° |
| 2026-05-08 00:02 | 36.82171 | 7.00526 | 36959 ft | 514 kts | 90° |
| 2026-05-08 00:02 | 36.82314 | 7.09436 | 36960 ft | 514 kts | 90° |
| 2026-05-08 00:03 | 36.82456 | 7.18356 | 36965 ft | 514 kts | 90° |
| 2026-05-08 00:03 | 36.82586 | 7.27273 | 36962 ft | 514 kts | 90° |
| 2026-05-08 00:04 | 36.82708 | 7.36197 | 36672 ft | 514 kts | 90° |
| 2026-05-08 00:04 | 36.82766 | 7.40594 | 36427 ft | 513 kts | 90° |
| 2026-05-08 00:04 | 36.82824 | 7.45041 | 36175 ft | 513 kts | 89° |
| 2026-05-08 00:05 | 36.82880 | 7.49511 | 35923 ft | 514 kts | 89° |
| 2026-05-08 00:05 | 36.82935 | 7.53974 | 35657 ft | 514 kts | 89° |
| 2026-05-08 00:05 | 36.82990 | 7.58433 | 35410 ft | 514 kts | 89° |
| 2026-05-08 00:05 | 36.83045 | 7.62888 | 35155 ft | 514 kts | 89° |
| 2026-05-08 00:06 | 36.83099 | 7.67347 | 34904 ft | 513 kts | 89° |
| 2026-05-08 00:06 | 36.83149 | 7.71804 | 34667 ft | 513 kts | 89° |
| 2026-05-08 00:06 | 36.83194 | 7.76250 | 34432 ft | 513 kts | 89° |
| 2026-05-08 00:06 | 36.83236 | 7.80701 | 34198 ft | 512 kts | 89° |
| 2026-05-08 00:07 | 36.83274 | 7.85142 | 33876 ft | 510 kts | 88° |
| 2026-05-08 00:07 | 36.83303 | 7.89560 | 33261 ft | 506 kts | 89° |
| 2026-05-08 00:07 | 36.83325 | 7.93937 | 32708 ft | 502 kts | 89° |
| 2026-05-08 00:07 | 36.83340 | 7.98278 | 32146 ft | 499 kts | 89° |
| 2026-05-08 00:08 | 36.83352 | 8.02599 | 31602 ft | 495 kts | 89° |
| 2026-05-08 00:08 | 36.83362 | 8.06895 | 31052 ft | 493 kts | 89° |
| 2026-05-08 00:08 | 36.83372 | 8.11161 | 30512 ft | 490 kts | 89° |
| 2026-05-08 00:08 | 36.83385 | 8.15412 | 29969 ft | 488 kts | 89° |
| 2026-05-08 00:09 | 36.83400 | 8.19637 | 29387 ft | 485 kts | 89° |
| 2026-05-08 00:09 | 36.83415 | 8.23778 | 28874 ft | 481 kts | 89° |
| 2026-05-08 00:09 | 36.83428 | 8.27939 | 28355 ft | 478 kts | 89° |
| 2026-05-08 00:09 | 36.83436 | 8.32076 | 27835 ft | 474 kts | 89° |
| 2026-05-08 00:10 | 36.83441 | 8.36181 | 27319 ft | 471 kts | 89° |
| 2026-05-08 00:10 | 36.83447 | 8.40244 | 26837 ft | 467 kts | 89° |
| 2026-05-08 00:10 | 36.83452 | 8.44292 | 26347 ft | 464 kts | 89° |
| 2026-05-08 00:10 | 36.83452 | 8.48302 | 25865 ft | 461 kts | 89° |
| 2026-05-08 00:11 | 36.83452 | 8.52288 | 25389 ft | 458 kts | 90° |
| 2026-05-08 00:11 | 36.83449 | 8.56261 | 24914 ft | 456 kts | 90° |
| 2026-05-08 00:11 | 36.83444 | 8.60198 | 24434 ft | 454 kts | 90° |
| 2026-05-08 00:11 | 36.83440 | 8.64136 | 23951 ft | 452 kts | 90° |
| 2026-05-08 00:12 | 36.83442 | 8.68053 | 23457 ft | 451 kts | 89° |
| 2026-05-08 00:12 | 36.83462 | 8.71953 | 22921 ft | 448 kts | 89° |
| 2026-05-08 00:12 | 36.83494 | 8.75840 | 22426 ft | 445 kts | 89° |
| 2026-05-08 00:12 | 36.83528 | 8.79643 | 21928 ft | 443 kts | 90° |
| 2026-05-08 00:13 | 36.83559 | 8.83476 | 21446 ft | 440 kts | 90° |
| 2026-05-08 00:13 | 36.83586 | 8.87279 | 20955 ft | 438 kts | 90° |
| 2026-05-08 00:13 | 36.83609 | 8.91069 | 20446 ft | 430 kts | 90° |
| 2026-05-08 00:13 | 36.83626 | 8.94737 | 19974 ft | 416 kts | 90° |
| 2026-05-08 00:14 | 36.83641 | 8.98325 | 19508 ft | 413 kts | 91° |
| 2026-05-08 00:14 | 36.83651 | 9.01907 | 19034 ft | 412 kts | 91° |
| 2026-05-08 00:14 | 36.83664 | 9.05478 | 18569 ft | 412 kts | 91° |
| 2026-05-08 00:14 | 36.83678 | 9.09051 | 18089 ft | 411 kts | 91° |
| 2026-05-08 00:15 | 36.83687 | 9.12620 | 17594 ft | 410 kts | 91° |
| 2026-05-08 00:15 | 36.83696 | 9.16181 | 17135 ft | 408 kts | 91° |
| 2026-05-08 00:15 | 36.83706 | 9.19719 | 16682 ft | 406 kts | 91° |
| 2026-05-08 00:15 | 36.83716 | 9.23236 | 16224 ft | 404 kts | 91° |
| 2026-05-08 00:16 | 36.83727 | 9.26732 | 15772 ft | 402 kts | 91° |
| 2026-05-08 00:16 | 36.83737 | 9.30179 | 15320 ft | 390 kts | 91° |
| 2026-05-08 00:16 | 36.83745 | 9.33502 | 14891 ft | 377 kts | 91° |
| 2026-05-08 00:16 | 36.83749 | 9.36731 | 14476 ft | 370 kts | 92° |
| 2026-05-08 00:17 | 36.83749 | 9.39945 | 14051 ft | 371 kts | 92° |
| 2026-05-08 00:17 | 36.83500 | 9.43147 | 13598 ft | 369 kts | 105° |
| 2026-05-08 00:17 | 36.82864 | 9.46236 | 13147 ft | 367 kts | 109° |
| 2026-05-08 00:17 | 36.82424 | 9.48273 | 12855 ft | 366 kts | 108° |
| 2026-05-08 00:18 | 36.81760 | 9.51336 | 12424 ft | 364 kts | 109° |
| 2026-05-08 00:18 | 36.80687 | 9.55255 | 12030 ft | 355 kts | 113° |
| 2026-05-08 00:18 | 36.79848 | 9.58136 | 11662 ft | 352 kts | 113° |
| 2026-05-08 00:18 | 36.79012 | 9.61001 | 11295 ft | 350 kts | 113° |
| 2026-05-08 00:19 | 36.78460 | 9.62888 | 11058 ft | 348 kts | 113° |
| 2026-05-08 00:19 | 36.77636 | 9.65712 | 10669 ft | 345 kts | 113° |
| 2026-05-08 00:19 | 36.76814 | 9.68513 | 10310 ft | 342 kts | 113° |
| 2026-05-08 00:19 | 36.76020 | 9.71234 | 10036 ft | 327 kts | 113° |
| 2026-05-08 00:20 | 36.75243 | 9.73875 | 9610 ft | 323 kts | 113° |
| 2026-05-08 00:20 | 36.74476 | 9.76489 | 9290 ft | 319 kts | 113° |
| 2026-05-08 00:20 | 36.73718 | 9.79075 | 8931 ft | 317 kts | 113° |
| 2026-05-08 00:20 | 36.72968 | 9.81654 | 8539 ft | 316 kts | 113° |
| 2026-05-08 00:21 | 36.72226 | 9.84220 | 8154 ft | 314 kts | 114° |
| 2026-05-08 00:21 | 36.71491 | 9.86784 | 7740 ft | 313 kts | 113° |
| 2026-05-08 00:21 | 36.70766 | 9.89330 | 7367 ft | 311 kts | 113° |
| 2026-05-08 00:21 | 36.70047 | 9.91859 | 7003 ft | 308 kts | 113° |
| 2026-05-08 00:22 | 36.69353 | 9.94379 | 6621 ft | 307 kts | 111° |
| 2026-05-08 00:22 | 36.68761 | 9.96933 | 6269 ft | 306 kts | 108° |
| 2026-05-08 00:22 | 36.68232 | 9.99490 | 5893 ft | 304 kts | 108° |
| 2026-05-08 00:22 | 36.67725 | 10.02041 | 5537 ft | 302 kts | 107° |
| 2026-05-08 00:23 | 36.67224 | 10.04568 | 5183 ft | 298 kts | 108° |
| 2026-05-08 00:23 | 36.66720 | 10.07063 | 4835 ft | 295 kts | 108° |
| 2026-05-08 00:23 | 36.66224 | 10.09482 | 4710 ft | 282 kts | 108° |
| 2026-05-08 00:23 | 36.65748 | 10.11771 | 4573 ft | 269 kts | 109° |
| 2026-05-08 00:24 | 36.65299 | 10.13987 | 4298 ft | 255 kts | 104° |
| 2026-05-08 00:24 | 36.65429 | 10.16209 | 3752 ft | 267 kts | 68° |
| 2026-05-08 00:24 | 36.66576 | 10.17909 | 3400 ft | 257 kts | 28° |
| 2026-05-08 00:24 | 36.68242 | 10.18438 | 3121 ft | 246 kts | 358° |
| 2026-05-08 00:25 | 36.69943 | 10.18562 | 2797 ft | 245 kts | 8° |
| 2026-05-08 00:25 | 36.71576 | 10.18995 | 2482 ft | 234 kts | 13° |
| 2026-05-08 00:25 | 36.73114 | 10.19435 | 2217 ft | 220 kts | 13° |
| 2026-05-08 00:25 | 36.74568 | 10.19835 | 1903 ft | 208 kts | 13° |
| 2026-05-08 00:26 | 36.75937 | 10.20207 | 1631 ft | 193 kts | 14° |
| 2026-05-08 00:26 | 36.77198 | 10.20549 | 1400 ft | 176 kts | 14° |
| 2026-05-08 00:26 | 36.78345 | 10.20860 | 1151 ft | 162 kts | 14° |
| 2026-05-08 00:26 | 36.79414 | 10.21151 | 937 ft | 153 kts | 13° |
| 2026-05-08 00:27 | 36.80442 | 10.21431 | 740 ft | 150 kts | 15° |
| 2026-05-08 00:27 | 36.81454 | 10.21693 | 576 ft | 147 kts | 12° |
| 2026-05-08 00:27 | 36.82441 | 10.21967 | 389 ft | 143 kts | 14° |
| 2026-05-08 00:27 | 36.83411 | 10.22242 | 200 ft | 142 kts | 13° |
| 2026-05-08 00:28 | 36.84369 | 10.22503 | 33 ft | 135 kts | 12° |
| 2026-05-08 00:28 | 36.85005 | 10.22670 | 34 ft | 55 kts | 12° |
| 2026-05-08 00:28 | 36.85124 | 10.22675 | 34 ft | 10 kts | 305° |
| 2026-05-08 00:28 | 36.85149 | 10.22604 | 36 ft | 8 kts | 292° |
| 2026-05-08 00:29 | 36.85165 | 10.22545 | 36 ft | 7 kts | 286° |
| 2026-05-08 00:29 | 36.85146 | 10.22448 | 35 ft | 17 kts | 213° |
| 2026-05-08 00:29 | 36.85018 | 10.22399 | 31 ft | 21 kts | 194° |
| 2026-05-08 00:29 | 36.84880 | 10.22332 | 30 ft | 22 kts | 237° |
| 2026-05-08 00:30 | 36.84892 | 10.22144 | 30 ft | 23 kts | 281° |
| 2026-05-08 00:30 | 36.84821 | 10.22047 | 30 ft | 19 kts | 178° |
| 2026-05-08 00:30 | 36.84722 | 10.21986 | 30 ft | 13 kts | 213° |
| 2026-05-08 00:30 | 36.84661 | 10.21959 | 30 ft | 1 kts | 197° |